sensor_id;sensor_type;location;lat;lon;timestamp;temperature;humidity
51902;DHT22;37929;53.218;6.548;2023-03-01T00:01:34;2.90;99.90
51902;DHT22;37929;53.218;6.548;2023-03-01T00:04:00;2.80;99.90
51902;DHT22;37929;53.218;6.548;2023-03-01T00:06:26;2.80;99.90
51902;DHT22;37929;53.218;6.548;2023-03-01T00:08:53;2.80;99.90
51902;DHT22;37929;53.218;6.548;2023-03-01T00:11:25;2.70;99.90
51902;DHT22;37929;53.218;6.548;2023-03-01T00:13:53;2.70;99.90
51902;DHT22;37929;53.218;6.548;2023-03-01T00:16:29;2.80;99.90
51902;DHT22;37929;53.218;6.548;2023-03-01T00:18:55;2.80;99.90
51902;DHT22;37929;53.218;6.548;2023-03-01T00:21:22;2.80;99.90
51902;DHT22;37929;53.218;6.548;2023-03-01T00:23:48;2.80;99.90
51902;DHT22;37929;53.218;6.548;2023-03-01T00:26:15;2.80;99.90
51902;DHT22;37929;53.218;6.548;2023-03-01T00:28:42;2.70;99.90
51902;DHT22;37929;53.218;6.548;2023-03-01T00:31:11;2.80;99.90
51902;DHT22;37929;53.218;6.548;2023-03-01T00:33:37;2.60;99.90
51902;DHT22;37929;53.218;6.548;2023-03-01T00:36:03;3.00;99.90
51902;DHT22;37929;53.218;6.548;2023-03-01T00:38:29;2.60;99.90
51902;DHT22;37929;53.218;6.548;2023-03-01T00:40:55;2.70;99.90
51902;DHT22;37929;53.218;6.548;2023-03-01T00:43:27;2.70;99.90
51902;DHT22;37929;53.218;6.548;2023-03-01T00:45:53;2.70;99.90
51902;DHT22;37929;53.218;6.548;2023-03-01T00:48:19;2.70;99.90
51902;DHT22;37929;53.218;6.548;2023-03-01T00:50:45;2.60;99.90
51902;DHT22;37929;53.218;6.548;2023-03-01T00:53:11;2.90;99.90
51902;DHT22;37929;53.218;6.548;2023-03-01T00:55:37;2.60;99.90
51902;DHT22;37929;53.218;6.548;2023-03-01T00:58:02;2.70;99.90
51902;DHT22;37929;53.218;6.548;2023-03-01T01:00:28;2.70;99.90
51902;DHT22;37929;53.218;6.548;2023-03-01T01:02:54;2.60;99.90
51902;DHT22;37929;53.218;6.548;2023-03-01T01:05:20;2.60;99.90
51902;DHT22;37929;53.218;6.548;2023-03-01T01:07:47;2.50;99.90
51902;DHT22;37929;53.218;6.548;2023-03-01T01:10:13;2.50;99.90
51902;DHT22;37929;53.218;6.548;2023-03-01T01:12:43;2.50;99.90
51902;DHT22;37929;53.218;6.548;2023-03-01T01:15:09;2.50;99.90
51902;DHT22;37929;53.218;6.548;2023-03-01T01:17:38;2.60;99.90
51902;DHT22;37929;53.218;6.548;2023-03-01T01:20:04;2.90;99.90
51902;DHT22;37929;53.218;6.548;2023-03-01T01:22:30;2.60;99.90
51902;DHT22;37929;53.218;6.548;2023-03-01T01:24:56;2.60;99.90
51902;DHT22;37929;53.218;6.548;2023-03-01T01:27:21;2.60;99.90
51902;DHT22;37929;53.218;6.548;2023-03-01T01:29:47;2.60;99.90
51902;DHT22;37929;53.218;6.548;2023-03-01T01:32:13;2.60;99.90
51902;DHT22;37929;53.218;6.548;2023-03-01T01:34:39;2.70;99.90
51902;DHT22;37929;53.218;6.548;2023-03-01T01:37:04;2.50;99.90
51902;DHT22;37929;53.218;6.548;2023-03-01T01:39:36;3.40;99.90
51902;DHT22;37929;53.218;6.548;2023-03-01T01:42:02;2.60;99.90
51902;DHT22;37929;53.218;6.548;2023-03-01T01:44:29;3.20;99.90
51902;DHT22;37929;53.218;6.548;2023-03-01T01:46:59;2.50;99.90
51902;DHT22;37929;53.218;6.548;2023-03-01T01:49:38;2.80;99.90
51902;DHT22;37929;53.218;6.548;2023-03-01T01:52:13;2.40;99.90
51902;DHT22;37929;53.218;6.548;2023-03-01T01:57:22;2.30;99.90
51902;DHT22;37929;53.218;6.548;2023-03-01T01:59:53;2.50;99.90
51902;DHT22;37929;53.218;6.548;2023-03-01T02:02:20;2.70;99.90
51902;DHT22;37929;53.218;6.548;2023-03-01T02:04:48;2.20;99.90
51902;DHT22;37929;53.218;6.548;2023-03-01T02:07:17;2.20;99.90
51902;DHT22;37929;53.218;6.548;2023-03-01T02:09:47;2.40;99.90
51902;DHT22;37929;53.218;6.548;2023-03-01T02:12:19;2.20;99.90
51902;DHT22;37929;53.218;6.548;2023-03-01T02:14:45;2.10;99.90
51902;DHT22;37929;53.218;6.548;2023-03-01T02:17:13;2.60;99.90
51902;DHT22;37929;53.218;6.548;2023-03-01T02:22:36;1.90;99.90
51902;DHT22;37929;53.218;6.548;2023-03-01T02:30:48;1.90;99.90
51902;DHT22;37929;53.218;6.548;2023-03-01T02:33:35;1.90;99.90
51902;DHT22;37929;53.218;6.548;2023-03-01T02:36:10;2.70;99.90
51902;DHT22;37929;53.218;6.548;2023-03-01T02:38:39;2.20;99.90
51902;DHT22;37929;53.218;6.548;2023-03-01T02:41:07;1.80;99.90
51902;DHT22;37929;53.218;6.548;2023-03-01T02:43:34;2.10;99.90
51902;DHT22;37929;53.218;6.548;2023-03-01T02:46:13;1.90;99.90
51902;DHT22;37929;53.218;6.548;2023-03-01T02:48:48;1.80;99.90
51902;DHT22;37929;53.218;6.548;2023-03-01T02:54:30;1.60;99.90
51902;DHT22;37929;53.218;6.548;2023-03-01T02:56:57;1.60;99.90
51902;DHT22;37929;53.218;6.548;2023-03-01T02:59:27;1.70;99.90
51902;DHT22;37929;53.218;6.548;2023-03-01T03:01:54;1.60;99.90
51902;DHT22;37929;53.218;6.548;2023-03-01T03:04:20;1.70;99.90
51902;DHT22;37929;53.218;6.548;2023-03-01T03:06:49;1.50;99.90
51902;DHT22;37929;53.218;6.548;2023-03-01T03:09:15;1.50;99.90
51902;DHT22;37929;53.218;6.548;2023-03-01T03:11:42;2.10;99.90
51902;DHT22;37929;53.218;6.548;2023-03-01T03:14:12;1.50;99.90
51902;DHT22;37929;53.218;6.548;2023-03-01T03:16:47;1.50;99.90
51902;DHT22;37929;53.218;6.548;2023-03-01T03:19:14;1.50;99.90
51902;DHT22;37929;53.218;6.548;2023-03-01T03:21:40;1.40;99.90
51902;DHT22;37929;53.218;6.548;2023-03-01T03:24:06;1.20;99.90
51902;DHT22;37929;53.218;6.548;2023-03-01T03:26:32;1.10;99.90
51902;DHT22;37929;53.218;6.548;2023-03-01T03:28:58;1.00;99.90
51902;DHT22;37929;53.218;6.548;2023-03-01T03:31:24;1.00;99.90
51902;DHT22;37929;53.218;6.548;2023-03-01T03:33:50;1.10;99.90
51902;DHT22;37929;53.218;6.548;2023-03-01T03:36:20;1.30;99.90
51902;DHT22;37929;53.218;6.548;2023-03-01T03:38:46;1.30;99.90
51902;DHT22;37929;53.218;6.548;2023-03-01T03:41:12;1.20;99.90
51902;DHT22;37929;53.218;6.548;2023-03-01T03:43:39;1.60;99.90
51902;DHT22;37929;53.218;6.548;2023-03-01T03:46:06;1.20;99.90
51902;DHT22;37929;53.218;6.548;2023-03-01T03:48:40;1.20;99.90
51902;DHT22;37929;53.218;6.548;2023-03-01T03:51:06;1.40;99.90
51902;DHT22;37929;53.218;6.548;2023-03-01T03:53:32;1.30;99.90
51902;DHT22;37929;53.218;6.548;2023-03-01T03:55:58;1.30;99.90
51902;DHT22;37929;53.218;6.548;2023-03-01T03:58:25;1.40;99.90
51902;DHT22;37929;53.218;6.548;2023-03-01T04:00:54;2.20;99.90
51902;DHT22;37929;53.218;6.548;2023-03-01T04:03:22;1.50;99.90
51902;DHT22;37929;53.218;6.548;2023-03-01T04:05:48;1.50;99.90
51902;DHT22;37929;53.218;6.548;2023-03-01T04:08:17;1.50;99.90
51902;DHT22;37929;53.218;6.548;2023-03-01T04:10:48;1.50;99.90
51902;DHT22;37929;53.218;6.548;2023-03-01T04:13:17;1.50;99.90
51902;DHT22;37929;53.218;6.548;2023-03-01T04:15:52;1.50;99.90
51902;DHT22;37929;53.218;6.548;2023-03-01T04:18:20;1.40;99.90
51902;DHT22;37929;53.218;6.548;2023-03-01T04:20:46;2.00;99.90
51902;DHT22;37929;53.218;6.548;2023-03-01T04:23:15;1.40;99.90
51902;DHT22;37929;53.218;6.548;2023-03-01T04:25:55;1.30;99.90
51902;DHT22;37929;53.218;6.548;2023-03-01T04:28:32;1.30;99.90
51902;DHT22;37929;53.218;6.548;2023-03-01T04:31:07;1.20;99.90
51902;DHT22;37929;53.218;6.548;2023-03-01T04:36:09;0.70;99.90
51902;DHT22;37929;53.218;6.548;2023-03-01T04:38:36;1.10;99.90
51902;DHT22;37929;53.218;6.548;2023-03-01T04:41:06;1.20;99.90
51902;DHT22;37929;53.218;6.548;2023-03-01T04:43:33;1.10;99.90
51902;DHT22;37929;53.218;6.548;2023-03-01T04:46:07;1.10;99.90
51902;DHT22;37929;53.218;6.548;2023-03-01T04:48:39;1.90;99.90
51902;DHT22;37929;53.218;6.548;2023-03-01T04:51:05;1.00;99.90
51902;DHT22;37929;53.218;6.548;2023-03-01T04:53:32;1.00;99.90
51902;DHT22;37929;53.218;6.548;2023-03-01T04:55:58;0.90;99.90
51902;DHT22;37929;53.218;6.548;2023-03-01T04:58:26;0.90;99.90
51902;DHT22;37929;53.218;6.548;2023-03-01T05:00:53;0.80;99.90
51902;DHT22;37929;53.218;6.548;2023-03-01T05:03:19;0.80;99.90
51902;DHT22;37929;53.218;6.548;2023-03-01T05:05:47;0.80;99.90
51902;DHT22;37929;53.218;6.548;2023-03-01T05:08:13;0.90;99.90
51902;DHT22;37929;53.218;6.548;2023-03-01T05:10:45;0.90;99.90
51902;DHT22;37929;53.218;6.548;2023-03-01T05:13:12;0.90;99.90
51902;DHT22;37929;53.218;6.548;2023-03-01T05:15:57;0.80;99.90
51902;DHT22;37929;53.218;6.548;2023-03-01T05:18:25;0.90;99.90
51902;DHT22;37929;53.218;6.548;2023-03-01T05:21:01;0.90;99.90
51902;DHT22;37929;53.218;6.548;2023-03-01T05:23:30;0.90;99.90
51902;DHT22;37929;53.218;6.548;2023-03-01T05:25:58;1.60;99.90
51902;DHT22;37929;53.218;6.548;2023-03-01T05:28:25;0.90;99.90
51902;DHT22;37929;53.218;6.548;2023-03-01T05:30:51;1.20;99.90
51902;DHT22;37929;53.218;6.548;2023-03-01T05:33:17;1.00;99.90
51902;DHT22;37929;53.218;6.548;2023-03-01T05:35:45;1.00;99.90
51902;DHT22;37929;53.218;6.548;2023-03-01T05:38:12;1.10;99.90
51902;DHT22;37929;53.218;6.548;2023-03-01T05:40:45;1.10;99.90
51902;DHT22;37929;53.218;6.548;2023-03-01T05:43:13;1.10;99.90
51902;DHT22;37929;53.218;6.548;2023-03-01T05:45:39;1.70;99.90
51902;DHT22;37929;53.218;6.548;2023-03-01T05:48:06;1.10;99.90
51902;DHT22;37929;53.218;6.548;2023-03-01T05:50:34;1.80;99.90
51902;DHT22;37929;53.218;6.548;2023-03-01T05:53:04;1.10;99.90
51902;DHT22;37929;53.218;6.548;2023-03-01T05:55:34;1.00;99.90
51902;DHT22;37929;53.218;6.548;2023-03-01T05:58:02;1.10;99.90
51902;DHT22;37929;53.218;6.548;2023-03-01T06:00:28;1.20;99.90
51902;DHT22;37929;53.218;6.548;2023-03-01T06:02:56;1.00;99.90
51902;DHT22;37929;53.218;6.548;2023-03-01T06:05:22;1.10;99.90
51902;DHT22;37929;53.218;6.548;2023-03-01T06:07:48;1.10;99.90
51902;DHT22;37929;53.218;6.548;2023-03-01T06:10:16;1.00;99.90
51902;DHT22;37929;53.218;6.548;2023-03-01T06:12:42;1.00;99.90
51902;DHT22;37929;53.218;6.548;2023-03-01T06:15:11;1.10;99.90
51902;DHT22;37929;53.218;6.548;2023-03-01T06:17:38;1.10;99.90
51902;DHT22;37929;53.218;6.548;2023-03-01T06:20:10;1.10;99.90
51902;DHT22;37929;53.218;6.548;2023-03-01T06:22:36;1.10;99.90
51902;DHT22;37929;53.218;6.548;2023-03-01T06:25:03;1.20;99.90
51902;DHT22;37929;53.218;6.548;2023-03-01T06:27:29;1.20;99.90
51902;DHT22;37929;53.218;6.548;2023-03-01T06:29:54;1.40;99.90
51902;DHT22;37929;53.218;6.548;2023-03-01T06:32:20;1.10;99.90
51902;DHT22;37929;53.218;6.548;2023-03-01T06:34:46;1.20;99.90
51902;DHT22;37929;53.218;6.548;2023-03-01T06:37:12;1.20;99.90
51902;DHT22;37929;53.218;6.548;2023-03-01T06:39:38;1.10;99.90
51902;DHT22;37929;53.218;6.548;2023-03-01T06:42:04;1.20;99.90
51902;DHT22;37929;53.218;6.548;2023-03-01T06:44:30;1.20;99.90
51902;DHT22;37929;53.218;6.548;2023-03-01T06:46:56;1.10;99.90
51902;DHT22;37929;53.218;6.548;2023-03-01T06:49:21;1.00;99.90
51902;DHT22;37929;53.218;6.548;2023-03-01T06:51:47;1.00;99.90
51902;DHT22;37929;53.218;6.548;2023-03-01T06:54:13;1.10;99.90
51902;DHT22;37929;53.218;6.548;2023-03-01T06:56:39;1.10;99.90
51902;DHT22;37929;53.218;6.548;2023-03-01T06:59:05;1.20;99.90
51902;DHT22;37929;53.218;6.548;2023-03-01T07:01:31;1.20;99.90
51902;DHT22;37929;53.218;6.548;2023-03-01T07:03:57;1.20;99.90
51902;DHT22;37929;53.218;6.548;2023-03-01T07:06:23;1.20;99.90
51902;DHT22;37929;53.218;6.548;2023-03-01T07:08:49;1.20;99.90
51902;DHT22;37929;53.218;6.548;2023-03-01T07:11:15;1.10;99.90
51902;DHT22;37929;53.218;6.548;2023-03-01T07:13:41;1.00;99.90
51902;DHT22;37929;53.218;6.548;2023-03-01T07:16:08;1.10;99.90
51902;DHT22;37929;53.218;6.548;2023-03-01T07:18:33;1.10;99.90
51902;DHT22;37929;53.218;6.548;2023-03-01T07:21:05;1.10;99.90
51902;DHT22;37929;53.218;6.548;2023-03-01T07:23:31;1.10;99.90
51902;DHT22;37929;53.218;6.548;2023-03-01T07:25:57;1.20;99.90
51902;DHT22;37929;53.218;6.548;2023-03-01T07:28:23;1.30;99.90
51902;DHT22;37929;53.218;6.548;2023-03-01T07:30:49;1.30;99.90
51902;DHT22;37929;53.218;6.548;2023-03-01T07:33:17;1.40;99.90
51902;DHT22;37929;53.218;6.548;2023-03-01T07:35:43;1.40;99.90
51902;DHT22;37929;53.218;6.548;2023-03-01T07:38:09;1.40;99.90
51902;DHT22;37929;53.218;6.548;2023-03-01T07:40:35;1.50;99.90
51902;DHT22;37929;53.218;6.548;2023-03-01T07:43:00;1.60;99.90
51902;DHT22;37929;53.218;6.548;2023-03-01T07:45:27;1.40;99.90
51902;DHT22;37929;53.218;6.548;2023-03-01T07:47:55;1.40;99.90
51902;DHT22;37929;53.218;6.548;2023-03-01T07:50:22;1.50;99.90
51902;DHT22;37929;53.218;6.548;2023-03-01T07:52:49;1.70;99.90
51902;DHT22;37929;53.218;6.548;2023-03-01T07:55:15;1.50;99.90
51902;DHT22;37929;53.218;6.548;2023-03-01T07:57:41;1.60;99.90
51902;DHT22;37929;53.218;6.548;2023-03-01T08:00:10;1.60;99.90
51902;DHT22;37929;53.218;6.548;2023-03-01T08:02:36;1.70;99.90
51902;DHT22;37929;53.218;6.548;2023-03-01T08:05:01;1.70;99.90
51902;DHT22;37929;53.218;6.548;2023-03-01T08:07:27;1.80;99.90
51902;DHT22;37929;53.218;6.548;2023-03-01T08:09:53;1.90;99.90
51902;DHT22;37929;53.218;6.548;2023-03-01T08:12:18;1.90;99.90
51902;DHT22;37929;53.218;6.548;2023-03-01T08:14:45;2.00;99.90
51902;DHT22;37929;53.218;6.548;2023-03-01T08:17:13;2.10;99.90
51902;DHT22;37929;53.218;6.548;2023-03-01T08:19:39;2.10;99.90
51902;DHT22;37929;53.218;6.548;2023-03-01T08:22:05;2.80;99.90
51902;DHT22;37929;53.218;6.548;2023-03-01T08:24:31;2.20;99.90
51902;DHT22;37929;53.218;6.548;2023-03-01T08:26:57;2.30;99.90
51902;DHT22;37929;53.218;6.548;2023-03-01T08:29:23;2.60;99.90
51902;DHT22;37929;53.218;6.548;2023-03-01T08:31:50;3.20;99.90
51902;DHT22;37929;53.218;6.548;2023-03-01T08:34:17;4.10;99.90
51902;DHT22;37929;53.218;6.548;2023-03-01T08:36:45;5.10;99.90
51902;DHT22;37929;53.218;6.548;2023-03-01T08:39:16;5.70;99.90
51902;DHT22;37929;53.218;6.548;2023-03-01T08:41:43;6.10;99.90
51902;DHT22;37929;53.218;6.548;2023-03-01T08:44:11;6.30;99.90
51902;DHT22;37929;53.218;6.548;2023-03-01T08:46:39;6.60;99.90
51902;DHT22;37929;53.218;6.548;2023-03-01T08:49:13;6.60;99.90
51902;DHT22;37929;53.218;6.548;2023-03-01T08:51:39;6.60;99.90
51902;DHT22;37929;53.218;6.548;2023-03-01T08:54:17;6.50;99.90
51902;DHT22;37929;53.218;6.548;2023-03-01T08:56:43;6.70;99.90
51902;DHT22;37929;53.218;6.548;2023-03-01T08:59:11;6.70;99.90
51902;DHT22;37929;53.218;6.548;2023-03-01T09:01:36;6.60;99.90
51902;DHT22;37929;53.218;6.548;2023-03-01T09:04:03;6.30;99.90
51902;DHT22;37929;53.218;6.548;2023-03-01T09:06:35;6.20;99.90
51902;DHT22;37929;53.218;6.548;2023-03-01T09:09:02;6.40;99.90
51902;DHT22;37929;53.218;6.548;2023-03-01T09:11:28;6.80;99.90
51902;DHT22;37929;53.218;6.548;2023-03-01T09:13:55;7.50;99.90
51902;DHT22;37929;53.218;6.548;2023-03-01T09:16:22;7.90;99.90
51902;DHT22;37929;53.218;6.548;2023-03-01T09:18:53;8.30;99.90
51902;DHT22;37929;53.218;6.548;2023-03-01T09:21:20;8.50;99.90
51902;DHT22;37929;53.218;6.548;2023-03-01T09:23:48;8.80;99.90
51902;DHT22;37929;53.218;6.548;2023-03-01T09:26:21;9.20;99.90
51902;DHT22;37929;53.218;6.548;2023-03-01T09:28:50;9.20;99.90
51902;DHT22;37929;53.218;6.548;2023-03-01T09:31:17;8.90;99.90
51902;DHT22;37929;53.218;6.548;2023-03-01T09:33:46;8.60;99.90
51902;DHT22;37929;53.218;6.548;2023-03-01T09:36:14;8.00;99.90
51902;DHT22;37929;53.218;6.548;2023-03-01T09:38:41;7.80;99.90
51902;DHT22;37929;53.218;6.548;2023-03-01T09:43:50;7.70;99.90
51902;DHT22;37929;53.218;6.548;2023-03-01T09:46:23;7.60;99.90
51902;DHT22;37929;53.218;6.548;2023-03-01T09:48:56;7.50;99.90
51902;DHT22;37929;53.218;6.548;2023-03-01T09:51:27;7.40;99.90
51902;DHT22;37929;53.218;6.548;2023-03-01T09:53:55;7.50;99.90
51902;DHT22;37929;53.218;6.548;2023-03-01T09:59:37;8.50;99.90
51902;DHT22;37929;53.218;6.548;2023-03-01T10:02:44;8.90;99.90
51902;DHT22;37929;53.218;6.548;2023-03-01T10:05:39;8.90;99.90
51902;DHT22;37929;53.218;6.548;2023-03-01T10:10:59;8.60;99.90
51902;DHT22;37929;53.218;6.548;2023-03-01T10:13:50;8.50;99.90
51902;DHT22;37929;53.218;6.548;2023-03-01T10:16:40;8.40;99.90
51902;DHT22;37929;53.218;6.548;2023-03-01T10:19:14;8.40;99.90
51902;DHT22;37929;53.218;6.548;2023-03-01T10:21:45;8.20;99.90
51902;DHT22;37929;53.218;6.548;2023-03-01T10:24:16;8.20;99.90
51902;DHT22;37929;53.218;6.548;2023-03-01T10:26:50;8.10;99.90
51902;DHT22;37929;53.218;6.548;2023-03-01T10:29:19;8.20;99.90
51902;DHT22;37929;53.218;6.548;2023-03-01T10:31:51;8.20;99.90
51902;DHT22;37929;53.218;6.548;2023-03-01T10:34:27;8.20;99.90
51902;DHT22;37929;53.218;6.548;2023-03-01T10:37:01;8.30;99.90
51902;DHT22;37929;53.218;6.548;2023-03-01T10:39:27;8.30;99.90
51902;DHT22;37929;53.218;6.548;2023-03-01T10:44:41;8.30;99.90
51902;DHT22;37929;53.218;6.548;2023-03-01T10:47:27;8.30;99.90
51902;DHT22;37929;53.218;6.548;2023-03-01T10:50:03;8.30;99.90
51902;DHT22;37929;53.218;6.548;2023-03-01T10:52:32;8.30;99.90
51902;DHT22;37929;53.218;6.548;2023-03-01T10:55:19;8.20;99.90
51902;DHT22;37929;53.218;6.548;2023-03-01T10:57:48;8.30;99.90
51902;DHT22;37929;53.218;6.548;2023-03-01T11:00:19;8.30;99.90
51902;DHT22;37929;53.218;6.548;2023-03-01T11:02:50;8.20;99.90
51902;DHT22;37929;53.218;6.548;2023-03-01T11:05:24;8.20;99.90
51902;DHT22;37929;53.218;6.548;2023-03-01T11:07:58;8.30;99.90
51902;DHT22;37929;53.218;6.548;2023-03-01T11:10:30;8.40;99.90
51902;DHT22;37929;53.218;6.548;2023-03-01T11:15:40;8.50;99.90
51902;DHT22;37929;53.218;6.548;2023-03-01T11:18:21;8.50;99.90
51902;DHT22;37929;53.218;6.548;2023-03-01T11:20:48;8.50;99.90
51902;DHT22;37929;53.218;6.548;2023-03-01T11:23:16;8.60;99.90
51902;DHT22;37929;53.218;6.548;2023-03-01T11:26:02;8.50;99.90
51902;DHT22;37929;53.218;6.548;2023-03-01T11:28:30;8.60;99.90
51902;DHT22;37929;53.218;6.548;2023-03-01T11:31:02;8.70;99.90
51902;DHT22;37929;53.218;6.548;2023-03-01T11:33:53;8.80;99.90
51902;DHT22;37929;53.218;6.548;2023-03-01T11:38:56;8.80;99.90
51902;DHT22;37929;53.218;6.548;2023-03-01T11:41:30;8.90;99.90
51902;DHT22;37929;53.218;6.548;2023-03-01T11:44:15;8.90;99.90
51902;DHT22;37929;53.218;6.548;2023-03-01T11:47:10;8.90;99.90
51902;DHT22;37929;53.218;6.548;2023-03-01T11:52:44;9.30;99.90
51902;DHT22;37929;53.218;6.548;2023-03-01T12:19:15;9.00;99.90
51902;DHT22;37929;53.218;6.548;2023-03-01T12:30:23;8.80;99.90
51902;DHT22;37929;53.218;6.548;2023-03-01T12:38:49;8.90;99.90
51902;DHT22;37929;53.218;6.548;2023-03-01T12:41:46;8.80;99.90
51902;DHT22;37929;53.218;6.548;2023-03-01T12:47:04;8.90;99.90
51902;DHT22;37929;53.218;6.548;2023-03-01T12:49:48;8.90;99.90
51902;DHT22;37929;53.218;6.548;2023-03-01T12:52:28;8.90;99.90
51902;DHT22;37929;53.218;6.548;2023-03-01T12:54:57;8.90;99.90
51902;DHT22;37929;53.218;6.548;2023-03-01T12:57:37;9.10;99.90
51902;DHT22;37929;53.218;6.548;2023-03-01T13:02:45;9.20;99.90
51902;DHT22;37929;53.218;6.548;2023-03-01T13:10:42;9.30;99.90
51902;DHT22;37929;53.218;6.548;2023-03-01T13:13:22;9.30;99.90
51902;DHT22;37929;53.218;6.548;2023-03-01T13:15:49;9.30;99.90
51902;DHT22;37929;53.218;6.548;2023-03-01T13:23:26;9.30;99.90
51902;DHT22;37929;53.218;6.548;2023-03-01T13:28:52;9.30;99.90
51902;DHT22;37929;53.218;6.548;2023-03-01T13:33:48;9.40;99.90
51902;DHT22;37929;53.218;6.548;2023-03-01T13:46:54;9.70;99.90
51902;DHT22;37929;53.218;6.548;2023-03-01T13:49:41;9.80;99.90
51902;DHT22;37929;53.218;6.548;2023-03-01T13:52:30;9.90;99.90
51902;DHT22;37929;53.218;6.548;2023-03-01T13:54:58;9.90;99.90
51902;DHT22;37929;53.218;6.548;2023-03-01T13:57:32;9.90;99.90
51902;DHT22;37929;53.218;6.548;2023-03-01T14:00:03;10.00;99.90
51902;DHT22;37929;53.218;6.548;2023-03-01T14:02:30;10.00;99.90
51902;DHT22;37929;53.218;6.548;2023-03-01T14:04:57;10.00;99.90
51902;DHT22;37929;53.218;6.548;2023-03-01T14:07:25;9.90;99.90
51902;DHT22;37929;53.218;6.548;2023-03-01T14:09:56;9.90;99.90
51902;DHT22;37929;53.218;6.548;2023-03-01T14:15:10;9.80;99.90
51902;DHT22;37929;53.218;6.548;2023-03-01T14:20:26;9.80;99.90
51902;DHT22;37929;53.218;6.548;2023-03-01T14:22:55;9.90;99.90
51902;DHT22;37929;53.218;6.548;2023-03-01T14:25:34;9.50;99.90
51902;DHT22;37929;53.218;6.548;2023-03-01T14:30:38;9.60;99.90
51902;DHT22;37929;53.218;6.548;2023-03-01T14:33:19;9.60;99.90
51902;DHT22;37929;53.218;6.548;2023-03-01T14:35:57;9.70;99.90
51902;DHT22;37929;53.218;6.548;2023-03-01T14:40:58;10.20;99.90
51902;DHT22;37929;53.218;6.548;2023-03-01T14:43:29;10.20;99.90
51902;DHT22;37929;53.218;6.548;2023-03-01T14:45:55;10.20;99.90
51902;DHT22;37929;53.218;6.548;2023-03-01T14:48:21;10.40;99.90
51902;DHT22;37929;53.218;6.548;2023-03-01T14:50:47;10.40;99.90
51902;DHT22;37929;53.218;6.548;2023-03-01T14:53:24;10.40;99.90
51902;DHT22;37929;53.218;6.548;2023-03-01T14:55:55;10.30;99.90
51902;DHT22;37929;53.218;6.548;2023-03-01T14:58:25;10.00;99.90
51902;DHT22;37929;53.218;6.548;2023-03-01T15:00:57;9.80;99.90
51902;DHT22;37929;53.218;6.548;2023-03-01T15:03:41;9.80;99.90
51902;DHT22;37929;53.218;6.548;2023-03-01T15:06:09;9.80;99.90
51902;DHT22;37929;53.218;6.548;2023-03-01T15:08:37;9.60;99.90
51902;DHT22;37929;53.218;6.548;2023-03-01T15:11:30;9.60;99.90
51902;DHT22;37929;53.218;6.548;2023-03-01T15:13:57;9.40;99.90
51902;DHT22;37929;53.218;6.548;2023-03-01T15:16:26;9.30;99.90
51902;DHT22;37929;53.218;6.548;2023-03-01T15:18:55;9.30;99.90
51902;DHT22;37929;53.218;6.548;2023-03-01T15:21:27;9.30;99.90
51902;DHT22;37929;53.218;6.548;2023-03-01T15:24:20;9.30;99.90
51902;DHT22;37929;53.218;6.548;2023-03-01T15:27:01;9.20;99.90
51902;DHT22;37929;53.218;6.548;2023-03-01T15:29:32;9.20;99.90
51902;DHT22;37929;53.218;6.548;2023-03-01T15:32:01;9.10;99.90
51902;DHT22;37929;53.218;6.548;2023-03-01T15:34:36;9.10;99.90
51902;DHT22;37929;53.218;6.548;2023-03-01T15:37:04;9.00;99.90
51902;DHT22;37929;53.218;6.548;2023-03-01T15:42:10;8.90;99.90
51902;DHT22;37929;53.218;6.548;2023-03-01T15:44:38;8.90;99.90
51902;DHT22;37929;53.218;6.548;2023-03-01T15:47:22;8.80;99.90
51902;DHT22;37929;53.218;6.548;2023-03-01T15:49:52;8.70;99.90
51902;DHT22;37929;53.218;6.548;2023-03-01T15:52:22;8.60;99.90
51902;DHT22;37929;53.218;6.548;2023-03-01T15:54:59;8.60;99.90
51902;DHT22;37929;53.218;6.548;2023-03-01T15:57:25;8.60;99.90
51902;DHT22;37929;53.218;6.548;2023-03-01T15:59:51;8.50;99.90
51902;DHT22;37929;53.218;6.548;2023-03-01T16:02:17;8.50;99.90
51902;DHT22;37929;53.218;6.548;2023-03-01T16:04:46;8.50;99.90
51902;DHT22;37929;53.218;6.548;2023-03-01T16:07:13;8.40;99.90
51902;DHT22;37929;53.218;6.548;2023-03-01T16:09:38;8.30;99.90
51902;DHT22;37929;53.218;6.548;2023-03-01T16:12:08;8.30;99.90
51902;DHT22;37929;53.218;6.548;2023-03-01T16:14:34;8.30;99.90
51902;DHT22;37929;53.218;6.548;2023-03-01T16:17:00;8.20;99.90
51902;DHT22;37929;53.218;6.548;2023-03-01T16:19:25;8.20;99.90
51902;DHT22;37929;53.218;6.548;2023-03-01T16:21:51;8.60;99.90
51902;DHT22;37929;53.218;6.548;2023-03-01T16:24:17;8.10;99.90
51902;DHT22;37929;53.218;6.548;2023-03-01T16:26:43;8.10;99.90
51902;DHT22;37929;53.218;6.548;2023-03-01T16:29:08;8.10;99.90
51902;DHT22;37929;53.218;6.548;2023-03-01T16:31:34;8.50;99.90
51902;DHT22;37929;53.218;6.548;2023-03-01T16:34:00;8.00;99.90
51902;DHT22;37929;53.218;6.548;2023-03-01T16:36:26;8.00;99.90
51902;DHT22;37929;53.218;6.548;2023-03-01T16:38:55;7.90;99.90
51902;DHT22;37929;53.218;6.548;2023-03-01T16:41:22;7.80;99.90
51902;DHT22;37929;53.218;6.548;2023-03-01T16:43:49;7.80;99.90
51902;DHT22;37929;53.218;6.548;2023-03-01T16:46:26;7.80;99.90
51902;DHT22;37929;53.218;6.548;2023-03-01T16:48:54;7.70;99.90
51902;DHT22;37929;53.218;6.548;2023-03-01T16:51:21;7.70;99.90
51902;DHT22;37929;53.218;6.548;2023-03-01T16:53:48;7.60;99.90
51902;DHT22;37929;53.218;6.548;2023-03-01T16:56:14;7.50;99.90
51902;DHT22;37929;53.218;6.548;2023-03-01T16:58:40;7.90;99.90
51902;DHT22;37929;53.218;6.548;2023-03-01T17:03:36;7.30;99.90
51902;DHT22;37929;53.218;6.548;2023-03-01T17:06:08;7.30;99.90
51902;DHT22;37929;53.218;6.548;2023-03-01T17:08:34;7.30;99.90
51902;DHT22;37929;53.218;6.548;2023-03-01T17:11:12;7.20;99.90
51902;DHT22;37929;53.218;6.548;2023-03-01T17:13:38;7.10;99.90
51902;DHT22;37929;53.218;6.548;2023-03-01T17:16:06;7.10;99.90
51902;DHT22;37929;53.218;6.548;2023-03-01T17:18:33;7.00;99.90
51902;DHT22;37929;53.218;6.548;2023-03-01T17:20:59;7.00;99.90
51902;DHT22;37929;53.218;6.548;2023-03-01T17:23:26;6.90;99.90
51902;DHT22;37929;53.218;6.548;2023-03-01T17:25:52;7.20;99.90
51902;DHT22;37929;53.218;6.548;2023-03-01T17:28:24;6.80;99.90
51902;DHT22;37929;53.218;6.548;2023-03-01T17:30:50;6.80;99.90
51902;DHT22;37929;53.218;6.548;2023-03-01T17:33:17;6.70;99.90
51902;DHT22;37929;53.218;6.548;2023-03-01T17:35:43;7.10;99.90
51902;DHT22;37929;53.218;6.548;2023-03-01T17:38:12;6.70;99.90
51902;DHT22;37929;53.218;6.548;2023-03-01T17:40:39;6.60;99.90
51902;DHT22;37929;53.218;6.548;2023-03-01T17:43:06;6.50;99.90
51902;DHT22;37929;53.218;6.548;2023-03-01T17:45:32;6.70;99.90
51902;DHT22;37929;53.218;6.548;2023-03-01T17:48:01;6.50;99.90
51902;DHT22;37929;53.218;6.548;2023-03-01T17:50:27;6.40;99.90
51902;DHT22;37929;53.218;6.548;2023-03-01T17:52:53;6.40;99.90
51902;DHT22;37929;53.218;6.548;2023-03-01T17:55:21;6.30;99.90
51902;DHT22;37929;53.218;6.548;2023-03-01T17:57:47;6.30;99.90
51902;DHT22;37929;53.218;6.548;2023-03-01T18:00:14;6.20;99.90
51902;DHT22;37929;53.218;6.548;2023-03-01T18:02:41;6.20;99.90